createdAt,value
2023-03-22T00:02:55.273Z,15.80
2023-03-22T00:05:58.351Z,15.83
2023-03-22T00:09:00.798Z,15.75
2023-03-22T00:12:02.963Z,15.72
2023-03-22T00:15:05.829Z,15.66
2023-03-22T00:18:08.235Z,15.62
2023-03-22T00:21:15.406Z,15.65
2023-03-22T00:24:17.643Z,15.57
2023-03-22T00:27:19.906Z,15.64
2023-03-22T00:30:22.051Z,15.59
2023-03-22T00:33:24.336Z,15.64
2023-03-22T00:36:26.522Z,15.54
2023-03-22T00:39:28.710Z,15.52
2023-03-22T00:42:31.072Z,15.60
2023-03-22T00:45:36.186Z,15.48
2023-03-22T00:48:38.464Z,15.57
2023-03-22T00:51:40.602Z,15.55
2023-03-22T00:54:42.771Z,15.59
2023-03-22T00:57:44.973Z,15.59
2023-03-22T01:00:48.148Z,15.48
2023-03-22T01:03:50.651Z,15.47
2023-03-22T01:06:59.265Z,15.40
2023-03-22T01:10:01.541Z,15.35
2023-03-22T01:13:04.487Z,15.40
2023-03-22T01:16:07.463Z,15.40
2023-03-22T01:19:09.734Z,15.41
2023-03-22T01:22:12.106Z,15.38
2023-03-22T01:25:14.583Z,15.31
2023-03-22T01:28:16.947Z,15.17
2023-03-22T01:31:19.290Z,15.17
2023-03-22T01:34:22.349Z,15.24
2023-03-22T01:37:27.680Z,15.15
2023-03-22T01:40:29.887Z,15.12
2023-03-22T01:43:32.379Z,15.04
2023-03-22T01:46:34.729Z,15.02
2023-03-22T01:49:37.730Z,14.96
2023-03-22T01:52:40.595Z,14.95
2023-03-22T01:55:47.790Z,14.92
2023-03-22T01:58:57.446Z,14.82
2023-03-22T02:02:07.959Z,14.78
2023-03-22T02:05:12.347Z,14.82
2023-03-22T02:08:15.742Z,14.92
2023-03-22T02:11:33.568Z,14.91
2023-03-22T02:14:44.653Z,14.89
2023-03-22T02:18:38.653Z,14.81
2023-03-22T02:22:01.975Z,14.87
2023-03-22T02:25:23.151Z,14.87
2023-03-22T02:28:56.408Z,14.78
2023-03-22T02:32:17.141Z,14.72
2023-03-22T02:35:42.735Z,14.73
2023-03-22T02:38:57.749Z,14.57
2023-03-22T02:42:16.036Z,14.66
2023-03-22T02:45:44.753Z,14.56
2023-03-22T02:49:02.044Z,14.63
2023-03-22T02:52:17.567Z,14.57
2023-03-22T02:55:46.390Z,14.48
2023-03-22T02:58:53.201Z,14.58
2023-03-22T03:01:57.626Z,14.52
2023-03-22T03:04:59.993Z,14.51
2023-03-22T03:08:02.737Z,14.54
2023-03-22T03:11:07.149Z,14.49
2023-03-22T03:14:20.242Z,14.52
2023-03-22T03:17:32.531Z,14.54
2023-03-22T03:20:56.589Z,14.47
2023-03-22T03:24:27.893Z,14.46
2023-03-22T03:27:38.539Z,14.46
2023-03-22T03:30:49.549Z,14.49
2023-03-22T03:34:00.740Z,14.35
2023-03-22T03:37:15.970Z,14.40
2023-03-22T03:40:23.512Z,14.26
2023-03-22T03:43:25.736Z,14.33
2023-03-22T03:46:29.235Z,14.38
2023-03-22T03:49:31.377Z,14.48
2023-03-22T03:52:34.693Z,14.52
2023-03-22T03:55:37.657Z,14.46
2023-03-22T03:58:40.809Z,14.45
2023-03-22T04:01:53.605Z,14.53
2023-03-22T04:05:00.477Z,14.50
2023-03-22T04:08:02.597Z,14.51
2023-03-22T04:11:05.410Z,14.52
2023-03-22T04:14:08.067Z,14.44
2023-03-22T04:17:10.461Z,14.32
2023-03-22T04:20:13.835Z,14.38
2023-03-22T04:23:16.240Z,14.48
2023-03-22T04:26:21.896Z,14.50
2023-03-22T04:29:40.662Z,14.39
2023-03-22T04:33:07.142Z,14.26
2023-03-22T04:36:43.017Z,14.32
2023-03-22T04:40:08.066Z,14.25
2023-03-22T04:43:19.049Z,14.23
2023-03-22T04:46:27.177Z,14.34
2023-03-22T04:49:38.240Z,14.39
2023-03-22T04:52:40.980Z,14.45
2023-03-22T04:55:43.242Z,14.39
2023-03-22T04:58:46.172Z,14.42
2023-03-22T05:01:49.316Z,14.42
2023-03-22T05:04:54.857Z,14.36
2023-03-22T05:08:10.613Z,14.29
2023-03-22T05:11:16.296Z,14.34
2023-03-22T05:14:25.595Z,14.41
2023-03-22T05:17:28.295Z,14.35
2023-03-22T05:20:32.673Z,14.42
2023-03-22T05:23:51.697Z,14.31
2023-03-22T05:26:55.203Z,14.26
2023-03-22T05:30:02.155Z,14.45
2023-03-22T05:33:22.057Z,14.47
2023-03-22T05:36:29.706Z,14.44
2023-03-22T05:39:48.964Z,14.74
2023-03-22T05:42:52.219Z,14.85
2023-03-22T05:45:58.822Z,14.99
2023-03-22T05:49:14.311Z,15.27
2023-03-22T05:52:17.154Z,15.42
2023-03-22T05:55:32.000Z,15.48
2023-03-22T05:58:36.652Z,15.56
2023-03-22T06:01:39.542Z,15.57
2023-03-22T06:04:49.645Z,15.60
2023-03-22T06:07:52.389Z,15.60
2023-03-22T06:10:56.452Z,15.63
2023-03-22T06:13:58.755Z,15.67
2023-03-22T06:17:05.954Z,15.68
2023-03-22T06:20:11.927Z,15.74
2023-03-22T06:23:16.808Z,15.68
2023-03-22T06:26:21.349Z,15.78
2023-03-22T06:29:23.717Z,15.93
2023-03-22T06:32:28.929Z,15.89
2023-03-22T06:35:33.234Z,15.91
2023-03-22T06:38:35.661Z,15.84
2023-03-22T06:41:38.193Z,15.87
2023-03-22T06:44:43.855Z,15.85
2023-03-22T06:48:09.781Z,15.96
2023-03-22T06:51:32.337Z,15.96
2023-03-22T06:54:34.805Z,16.05
2023-03-22T06:57:37.034Z,16.14
2023-03-22T07:00:39.733Z,16.31
2023-03-22T07:03:43.264Z,16.35
2023-03-22T07:06:49.365Z,16.48
2023-03-22T07:09:53.879Z,17.02
2023-03-22T07:13:01.063Z,17.49
2023-03-22T07:16:03.748Z,17.37
2023-03-22T07:19:29.372Z,17.24
2023-03-22T07:22:33.340Z,17.15
2023-03-22T07:25:35.631Z,17.14
2023-03-22T07:28:53.624Z,17.34
2023-03-22T07:32:02.084Z,17.50
2023-03-22T07:35:17.001Z,17.59
2023-03-22T07:38:19.780Z,17.67
2023-03-22T07:41:24.034Z,17.88
2023-03-22T07:44:30.867Z,18.01
2023-03-22T07:47:53.233Z,18.10
2023-03-22T07:51:01.122Z,18.23
2023-03-22T07:54:03.427Z,18.34
2023-03-22T07:57:06.956Z,18.40
2023-03-22T08:00:13.842Z,18.46
2023-03-22T08:03:23.338Z,18.50
2023-03-22T08:06:37.309Z,18.56
2023-03-22T08:09:41.782Z,18.63
2023-03-22T08:12:46.517Z,18.67
2023-03-22T08:15:57.672Z,18.56
2023-03-22T08:19:00.412Z,18.51
2023-03-22T08:22:05.231Z,18.44
2023-03-22T08:25:33.483Z,18.40
2023-03-22T08:28:43.087Z,18.38
2023-03-22T08:31:49.783Z,18.29
2023-03-22T08:34:52.838Z,18.26
2023-03-22T08:37:56.387Z,18.24
2023-03-22T08:41:05.966Z,18.31
2023-03-22T08:44:09.672Z,18.39
2023-03-22T08:47:14.582Z,18.49
2023-03-22T08:50:20.343Z,18.51
2023-03-22T08:53:31.444Z,18.41
2023-03-22T08:56:54.052Z,18.46
2023-03-22T09:00:11.107Z,18.41
2023-03-22T09:03:21.597Z,18.42
2023-03-22T09:06:26.214Z,18.44
2023-03-22T09:09:28.444Z,18.44
2023-03-22T09:12:32.175Z,18.43
2023-03-22T09:15:36.645Z,18.42
2023-03-22T09:18:54.371Z,18.45
2023-03-22T09:21:57.800Z,18.50
2023-03-22T09:25:10.356Z,18.53
2023-03-22T09:28:14.163Z,18.59
2023-03-22T09:31:20.345Z,18.67
2023-03-22T09:34:27.099Z,18.70
2023-03-22T09:37:30.599Z,18.76
2023-03-22T09:40:37.686Z,18.73
2023-03-22T09:43:43.356Z,18.77
2023-03-22T09:46:52.986Z,18.84
2023-03-22T09:50:04.596Z,18.82
2023-03-22T09:53:13.686Z,18.86
2023-03-22T09:56:34.229Z,18.94
2023-03-22T10:00:02.200Z,19.00
2023-03-22T10:03:38.355Z,19.07
2023-03-22T10:06:43.010Z,19.08
2023-03-22T10:09:50.572Z,19.11
2023-03-22T10:13:07.753Z,19.14
2023-03-22T10:16:21.576Z,19.15
2023-03-22T10:19:27.620Z,19.14
2023-03-22T10:22:37.016Z,19.16
2023-03-22T10:25:40.825Z,19.13
2023-03-22T10:28:45.200Z,19.04
2023-03-22T10:31:47.411Z,19.01
2023-03-22T10:34:49.670Z,18.90
2023-03-22T10:37:56.488Z,18.93
2023-03-22T10:40:59.437Z,18.80
2023-03-22T10:44:06.132Z,18.86
2023-03-22T10:47:11.419Z,18.83
2023-03-22T10:50:18.595Z,18.83
2023-03-22T10:53:27.121Z,18.82
2023-03-22T10:56:31.111Z,18.77
2023-03-22T10:59:49.130Z,18.72
2023-03-22T11:02:58.490Z,18.63
2023-03-22T11:06:11.771Z,18.57
2023-03-22T11:09:17.971Z,18.55
2023-03-22T11:12:21.311Z,18.52
2023-03-22T11:15:40.469Z,18.47
2023-03-22T11:18:43.535Z,18.41
2023-03-22T11:21:46.077Z,18.36
2023-03-22T11:24:48.563Z,18.36
2023-03-22T11:28:29.249Z,18.35
2023-03-22T11:31:55.155Z,18.34
2023-03-22T11:35:23.800Z,18.31
2023-03-22T11:38:36.762Z,18.26
2023-03-22T11:41:40.322Z,18.20
2023-03-22T11:44:44.417Z,18.17
2023-03-22T11:47:46.834Z,18.18
2023-03-22T11:50:52.963Z,18.21
2023-03-22T11:54:24.992Z,18.25
2023-03-22T11:57:30.832Z,18.23
2023-03-22T12:00:37.621Z,18.25
2023-03-22T12:03:44.535Z,18.24
2023-03-22T12:06:53.281Z,18.27
2023-03-22T12:10:11.489Z,18.31
2023-03-22T12:13:29.847Z,18.35
2023-03-22T12:16:40.139Z,18.40
2023-03-22T12:19:50.228Z,18.43
2023-03-22T12:22:54.478Z,18.49
2023-03-22T12:26:12.731Z,18.59
2023-03-22T12:29:19.399Z,18.67
2023-03-22T12:32:31.173Z,18.77
2023-03-22T12:35:35.634Z,18.87
2023-03-22T12:38:41.376Z,18.95
2023-03-22T12:41:49.617Z,19.02
2023-03-22T12:45:04.743Z,19.06
2023-03-22T12:48:16.791Z,19.09
2023-03-22T12:51:19.157Z,19.09
2023-03-22T12:54:25.023Z,19.11
2023-03-22T12:57:27.813Z,19.10
2023-03-22T13:00:53.875Z,19.10
2023-03-22T13:03:57.740Z,19.10
2023-03-22T13:07:13.665Z,19.13
2023-03-22T13:10:39.472Z,19.16
2023-03-22T13:13:44.488Z,19.18
2023-03-22T13:16:56.219Z,19.24
2023-03-22T13:20:00.740Z,19.30
2023-03-22T13:23:04.721Z,19.40
2023-03-22T13:26:15.029Z,19.49
2023-03-22T13:29:20.090Z,19.60
2023-03-22T13:32:33.461Z,19.70
2023-03-22T13:35:48.866Z,19.75
2023-03-22T13:38:56.599Z,19.82
2023-03-22T13:42:17.670Z,19.77
2023-03-22T13:45:33.640Z,19.91
2023-03-22T13:48:48.803Z,19.93
2023-03-22T13:51:51.509Z,19.92
2023-03-22T13:54:57.220Z,19.93
2023-03-22T13:58:00.137Z,19.94
2023-03-22T14:01:16.707Z,19.94
2023-03-22T14:04:37.428Z,19.95
2023-03-22T14:07:48.143Z,19.94
2023-03-22T14:10:58.532Z,19.93
2023-03-22T14:14:05.467Z,19.97
2023-03-22T14:17:13.800Z,20.00
2023-03-22T14:20:20.140Z,19.92
